PWSweather.com
Personal Weather Stations
Station Observations
COONRAPIDS
Minneapolis, MN 55433

Minneapolis, MN 55433

Lat: 45.187721, Lon: -93.36828

Elevation: 898

Station Type: Davis Vantage Pro 2

High Low Average
Temperature 0.0°F0.0°F 0.0°F0.0°F 0.0°F0.0°F
Dew Point 0.0°F0.0°F 0.0°F0.0°F 0.0°F0.0°F
Winds Calm -Calm - Calm Calm Calm Calm
Wind Gusts -- -- --
Humidity 0% 0% 0%
Pressure 0.00 in0.00 in 0.00 in0.00 in -
Precipitation 0.00 in0.0 mm - -
Hour Temp Dew Point Humidity Winds Wind Gusts Pressure Precip Precip Rate Daily Precip Total
07:40 PM 13.7°F-10.2°C 3.1°F-16.1°C 62% 5.8 mph W9.3 kmh W 11.5 mph18.5 kmh 30.33 in1027.1 mb - 0.00 in0.0 mm 0.00 in0.0 mm
07:50 PM 13.7°F-10.2°C 1.6°F-16.9°C 58% 3.5 mph WSW5.6 kmh WSW 9.2 mph14.8 kmh 30.33 in1027.1 mb - 0.00 in0.0 mm 0.00 in0.0 mm
08:00 PM 13.5°F-10.3°C 0.7°F-17.4°C 56% 4.6 mph WNW7.4 kmh WNW 11.5 mph18.5 kmh 30.34 in1027.4 mb - 0.00 in0.0 mm 0.00 in0.0 mm
08:10 PM 13.2°F-10.4°C -0.4°F-18.0°C 54% 5.8 mph W9.3 kmh W 15.0 mph24.1 kmh 30.34 in1027.4 mb - 0.00 in0.0 mm 0.00 in0.0 mm
08:20 PM 13.0°F-10.6°C -0.5°F-18.1°C 54% 2.3 mph W3.7 kmh W 9.2 mph14.8 kmh 30.34 in1027.4 mb - 0.00 in0.0 mm 0.00 in0.0 mm
08:30 PM 12.8°F-10.7°C -0.7°F-18.2°C 54% 5.8 mph WNW9.3 kmh WNW 12.7 mph20.4 kmh 30.35 in1027.8 mb - 0.00 in0.0 mm 0.00 in0.0 mm
08:40 PM 12.7°F-10.7°C -0.8°F-18.2°C 54% 4.6 mph WNW7.4 kmh WNW 11.5 mph18.5 kmh 30.35 in1027.8 mb - 0.00 in0.0 mm 0.00 in0.0 mm
08:50 PM 12.6°F-10.8°C -0.5°F-18.1°C 55% 1.2 mph W1.9 kmh W 4.6 mph7.4 kmh 30.35 in1027.8 mb - 0.00 in0.0 mm 0.00 in0.0 mm
09:00 PM 12.5°F-10.8°C -0.2°F-17.9°C 56% 3.5 mph W5.6 kmh W 5.8 mph9.3 kmh 30.35 in1027.8 mb - 0.00 in0.0 mm 0.00 in0.0 mm
09:10 PM 12.4°F-10.9°C 0.4°F-17.6°C 58% 4.6 mph WNW7.4 kmh WNW 8.1 mph13.0 kmh 30.36 in1028.1 mb - 0.00 in0.0 mm 0.00 in0.0 mm
09:20 PM 12.4°F-10.9°C 0.8°F-17.3°C 59% 2.3 mph W3.7 kmh W 11.5 mph18.5 kmh 30.36 in1028.1 mb - 0.00 in0.0 mm 0.00 in0.0 mm
09:30 PM 12.3°F-10.9°C 0.7°F-17.4°C 59% 2.3 mph W3.7 kmh W 5.8 mph9.3 kmh 30.36 in1028.1 mb - 0.00 in0.0 mm 0.00 in0.0 mm
09:40 PM 12.2°F-11.0°C 0.9°F-17.3°C 60% 1.2 mph WNW1.9 kmh WNW -- 30.36 in1028.1 mb - 0.00 in0.0 mm 0.00 in0.0 mm
09:50 PM 12.1°F-11.1°C 0.9°F-17.3°C 60% 1.2 mph WNW1.9 kmh WNW 3.5 mph5.6 kmh 30.36 in1028.1 mb - 0.00 in0.0 mm 0.00 in0.0 mm
10:00 PM 12.1°F-11.1°C 0.9°F-17.3°C 60% 3.5 mph W5.6 kmh W 11.5 mph18.5 kmh 30.36 in1028.1 mb - 0.00 in0.0 mm 0.00 in0.0 mm
10:10 PM 12.1°F-11.1°C 0.8°F-17.3°C 60% 2.3 mph W3.7 kmh W 5.8 mph9.3 kmh 30.36 in1028.1 mb - 0.00 in0.0 mm 0.00 in0.0 mm
10:20 PM 12.0°F-11.1°C 0.8°F-17.3°C 60% 3.5 mph W5.6 kmh W 15.0 mph24.1 kmh 30.36 in1028.1 mb - 0.00 in0.0 mm 0.00 in0.0 mm
10:30 PM 12.1°F-11.1°C 0.8°F-17.3°C 60% 1.2 mph W1.9 kmh W 5.8 mph9.3 kmh 30.36 in1028.1 mb - 0.00 in0.0 mm 0.00 in0.0 mm
10:40 PM 11.9°F-11.2°C 1.0°F-17.2°C 61% 3.5 mph WNW5.6 kmh WNW 9.2 mph14.8 kmh 30.36 in1028.1 mb - 0.00 in0.0 mm 0.00 in0.0 mm
10:50 PM 11.9°F-11.2°C 1.0°F-17.2°C 61% 4.6 mph NW7.4 kmh NW 8.1 mph13.0 kmh 30.36 in1028.1 mb - 0.00 in0.0 mm 0.00 in0.0 mm
11:00 PM 11.9°F-11.2°C 1.0°F-17.2°C 61% 3.5 mph NW5.6 kmh NW 9.2 mph14.8 kmh 30.36 in1028.1 mb - 0.00 in0.0 mm 0.00 in0.0 mm
11:10 PM 11.9°F-11.2°C 1.0°F-17.2°C 61% 2.3 mph NW3.7 kmh NW 4.6 mph7.4 kmh 30.36 in1028.1 mb - 0.00 in0.0 mm 0.00 in0.0 mm
11:20 PM 11.9°F-11.2°C 1.4°F-17.0°C 62% 6.9 mph NNW11.1 kmh NNW 15.0 mph24.1 kmh 30.36 in1028.1 mb - 0.00 in0.0 mm 0.00 in0.0 mm
11:30 PM 11.9°F-11.2°C 1.4°F-17.0°C 62% 2.3 mph WNW3.7 kmh WNW 8.1 mph13.0 kmh 30.37 in1028.4 mb - 0.00 in0.0 mm 0.00 in0.0 mm
11:40 PM 11.8°F-11.2°C 1.3°F-17.1°C 62% 4.6 mph WNW7.4 kmh WNW 10.4 mph16.7 kmh 30.37 in1028.4 mb - 0.00 in0.0 mm 0.00 in0.0 mm
11:50 PM 11.7°F-11.3°C 1.5°F-16.9°C 63% 3.5 mph NW5.6 kmh NW 8.1 mph13.0 kmh 30.37 in1028.4 mb - 0.00 in0.0 mm 0.00 in0.0 mm